createdAt,value
2023-01-10T00:00:33.157Z,149.70
2023-01-10T00:03:25.357Z,145.52
2023-01-10T00:06:15.451Z,148.30
2023-01-10T00:08:58.420Z,155.50
2023-01-10T00:12:05.514Z,148.70
2023-01-10T00:14:47.660Z,141.88
2023-01-10T00:17:36.383Z,151.65
2023-01-10T00:20:19.683Z,147.07
2023-01-10T00:23:08.430Z,148.88
2023-01-10T00:25:50.741Z,148.85
2023-01-10T00:28:42.702Z,152.00
2023-01-10T00:31:25.791Z,151.05
2023-01-10T00:34:15.492Z,152.63
2023-01-10T00:37:04.330Z,155.95
2023-01-10T00:39:53.342Z,149.25
2023-01-10T00:42:54.041Z,150.90
2023-01-10T00:45:43.337Z,158.95
2023-01-10T00:48:25.766Z,156.02
2023-01-10T00:51:14.403Z,149.50
2023-01-10T00:54:02.804Z,150.27
2023-01-10T00:56:44.381Z,151.55
2023-01-10T00:59:33.395Z,153.52
2023-01-10T01:02:22.467Z,151.48
2023-01-10T01:05:20.339Z,154.38
2023-01-10T01:08:02.599Z,150.40
2023-01-10T01:10:51.478Z,150.77
2023-01-10T01:13:33.630Z,147.32
2023-01-10T01:16:23.449Z,144.15
2023-01-10T01:19:05.633Z,140.45
2023-01-10T01:21:54.325Z,142.90
2023-01-10T01:24:36.757Z,141.13
2023-01-10T01:27:25.404Z,139.27
2023-01-10T01:30:15.717Z,137.98
2023-01-10T01:32:57.683Z,137.02
2023-01-10T01:35:49.430Z,141.88
2023-01-10T01:38:31.694Z,140.18
2023-01-10T01:41:39.331Z,144.93
2023-01-10T01:44:26.727Z,143.68
2023-01-10T01:47:22.483Z,145.35
2023-01-10T01:50:04.679Z,144.55
2023-01-10T01:52:55.368Z,147.80
2023-01-10T01:55:41.654Z,146.93
2023-01-10T01:58:38.342Z,155.98
2023-01-10T02:01:22.802Z,149.90
2023-01-10T02:04:30.374Z,149.73
2023-01-10T02:07:12.757Z,153.18
2023-01-10T02:10:06.417Z,150.43
2023-01-10T02:12:56.400Z,155.93
2023-01-10T02:15:38.661Z,155.27
2023-01-10T02:18:28.456Z,156.23
2023-01-10T02:21:41.383Z,152.45
2023-01-10T02:24:44.715Z,153.82
2023-01-10T02:28:22.373Z,151.68
2023-01-10T02:31:22.855Z,152.90
2023-01-10T02:34:25.235Z,155.45
2023-01-10T02:37:32.253Z,150.02
2023-01-10T02:40:52.528Z,153.20
2023-01-10T02:43:57.459Z,146.23
2023-01-10T02:46:41.763Z,146.68
2023-01-10T02:49:30.283Z,150.35
2023-01-10T02:52:19.437Z,149.57
2023-01-10T02:55:14.390Z,148.20
2023-01-10T02:58:20.875Z,149.25
2023-01-10T03:01:47.475Z,148.20
2023-01-10T03:05:06.267Z,146.90
2023-01-10T03:08:00.657Z,145.85
2023-01-10T03:11:10.318Z,146.07
2023-01-10T03:14:12.404Z,147.90
2023-01-10T03:17:04.941Z,148.25
2023-01-10T03:20:00.285Z,154.18
2023-01-10T03:22:44.282Z,150.07
2023-01-10T03:25:41.441Z,151.65
2023-01-10T03:28:53.638Z,149.13
2023-01-10T03:31:53.404Z,144.82
2023-01-10T03:34:42.720Z,151.00
2023-01-10T03:37:42.300Z,152.68
2023-01-10T03:40:42.642Z,151.18
2023-01-10T03:44:23.300Z,152.82
2023-01-10T03:47:22.353Z,151.40
2023-01-10T03:50:38.442Z,153.70
2023-01-10T03:53:34.273Z,149.95
2023-01-10T03:56:23.295Z,148.85
2023-01-10T03:59:13.236Z,151.85
2023-01-10T04:01:56.169Z,153.70
2023-01-10T04:04:45.408Z,157.40
2023-01-10T04:07:35.236Z,156.70
2023-01-10T04:10:18.444Z,155.85
2023-01-10T04:13:10.693Z,155.05
2023-01-10T04:15:52.298Z,150.77
2023-01-10T04:18:34.502Z,156.32
2023-01-10T04:21:23.298Z,159.55
2023-01-10T04:24:05.773Z,155.57
2023-01-10T04:26:54.343Z,148.25
2023-01-10T04:29:36.604Z,152.77
2023-01-10T04:32:25.305Z,154.60
2023-01-10T04:35:08.058Z,155.60
2023-01-10T04:37:58.327Z,158.38
2023-01-10T04:40:53.441Z,159.10
2023-01-10T04:43:35.540Z,164.13
2023-01-10T04:46:24.434Z,161.07
2023-01-10T04:49:07.177Z,158.23
2023-01-10T04:51:56.329Z,159.00
2023-01-10T04:54:52.347Z,153.82
2023-01-10T04:57:34.722Z,153.90
2023-01-10T05:00:24.281Z,157.15
2023-01-10T05:03:13.280Z,151.50
2023-01-10T05:05:55.628Z,152.10
2023-01-10T05:08:44.335Z,155.15
2023-01-10T05:11:26.656Z,154.25
2023-01-10T05:14:15.313Z,154.18
2023-01-10T05:16:57.639Z,149.05
2023-01-10T05:19:46.332Z,149.93
2023-01-10T05:22:28.700Z,153.45
2023-01-10T05:25:18.420Z,149.80
2023-01-10T05:28:02.215Z,154.57
2023-01-10T05:30:51.378Z,149.30
2023-01-10T05:33:40.282Z,146.23
2023-01-10T05:36:28.653Z,149.77
2023-01-10T05:39:12.703Z,146.98
2023-01-10T05:42:01.836Z,152.38
2023-01-10T05:44:43.423Z,150.20
2023-01-10T05:47:31.758Z,152.68
2023-01-10T05:50:14.292Z,157.25
2023-01-10T05:53:03.326Z,154.98
2023-01-10T05:55:52.767Z,151.68
2023-01-10T05:58:36.421Z,152.30
2023-01-10T06:01:25.289Z,150.23
2023-01-10T06:04:14.371Z,150.32
2023-01-10T06:07:05.835Z,147.13
2023-01-10T06:09:47.882Z,151.15
2023-01-10T06:12:36.409Z,148.07
2023-01-10T06:15:26.351Z,154.82
2023-01-10T06:18:15.681Z,145.77
2023-01-10T06:20:58.417Z,144.23
2023-01-10T06:27:25.235Z,153.98
2023-01-10T06:30:08.292Z,151.68
2023-01-10T06:32:57.370Z,146.98
2023-01-10T06:35:48.006Z,151.20
2023-01-10T06:38:30.366Z,151.98
2023-01-10T06:41:18.696Z,156.07
2023-01-10T06:44:00.390Z,150.65
2023-01-10T06:46:49.424Z,150.00
2023-01-10T06:49:31.807Z,148.70
2023-01-10T06:52:20.363Z,147.02
2023-01-10T06:55:02.600Z,145.30
2023-01-10T06:57:51.372Z,147.30
2023-01-10T07:00:35.784Z,145.35
2023-01-10T07:03:24.276Z,140.15
2023-01-10T07:06:12.420Z,143.18
2023-01-10T07:09:04.237Z,143.38
2023-01-10T07:11:46.594Z,145.70
2023-01-10T07:14:35.377Z,150.63
2023-01-10T07:17:17.618Z,144.70
2023-01-10T07:20:06.372Z,143.23
2023-01-10T07:22:48.631Z,143.25
2023-01-10T07:25:38.308Z,138.43
2023-01-10T07:28:27.397Z,138.93
2023-01-10T07:31:16.376Z,133.73
2023-01-10T07:34:08.366Z,129.20
2023-01-10T07:36:57.264Z,129.05
2023-01-10T07:39:39.677Z,131.90
2023-01-10T07:42:28.320Z,134.95
2023-01-10T07:45:10.588Z,128.88
2023-01-10T07:47:59.367Z,130.70
2023-01-10T07:50:43.722Z,125.53
2023-01-10T07:53:33.256Z,125.55
2023-01-10T07:56:15.574Z,126.68
2023-01-10T07:59:04.395Z,126.55
2023-01-10T08:01:53.401Z,132.00
2023-01-10T08:04:35.614Z,129.00
2023-01-10T08:07:24.262Z,124.97
2023-01-10T08:10:07.755Z,125.43
2023-01-10T08:12:57.734Z,126.18
2023-01-10T08:15:39.670Z,127.68
2023-01-10T08:18:28.344Z,125.57
2023-01-10T08:21:18.375Z,124.63
2023-01-10T08:24:01.662Z,122.95
2023-01-10T08:26:50.274Z,123.68
2023-01-10T08:29:32.607Z,125.50
2023-01-10T08:32:21.246Z,121.60
2023-01-10T08:35:03.621Z,124.07
2023-01-10T08:37:52.322Z,123.93
2023-01-10T08:40:36.111Z,120.97
2023-01-10T08:43:25.305Z,122.28
2023-01-10T08:46:14.250Z,122.93
2023-01-10T08:49:03.424Z,122.68
2023-01-10T08:51:46.606Z,123.90
2023-01-10T08:54:35.356Z,127.50
2023-01-10T08:57:17.553Z,127.57
2023-01-10T09:00:06.328Z,126.05
2023-01-10T09:02:49.749Z,126.10
2023-01-10T09:05:38.441Z,127.75
2023-01-10T09:08:20.631Z,129.70
2023-01-10T09:11:10.382Z,132.85
2023-01-10T09:13:52.737Z,132.80
2023-01-10T09:16:41.238Z,134.45
2023-01-10T09:19:30.362Z,133.45
2023-01-10T09:22:18.595Z,138.88
2023-01-10T09:25:01.266Z,139.45
2023-01-10T09:27:50.610Z,144.23
2023-01-10T09:30:33.255Z,144.15
2023-01-10T09:33:22.605Z,148.27
2023-01-10T09:36:08.543Z,148.25
2023-01-10T09:38:57.621Z,151.10
2023-01-10T09:42:03.290Z,148.38
2023-01-10T09:44:48.055Z,150.35
2023-01-10T09:48:02.272Z,150.95
2023-01-10T09:51:18.656Z,156.13
2023-01-10T09:54:12.482Z,156.95
2023-01-10T09:57:01.657Z,165.15
2023-01-10T09:59:50.334Z,162.43
2023-01-10T10:02:49.608Z,160.45
2023-01-10T10:05:36.253Z,164.38
2023-01-10T10:08:21.425Z,171.27
2023-01-10T10:11:15.310Z,172.40
2023-01-10T10:14:43.197Z,166.32
2023-01-10T10:17:54.260Z,164.93
2023-01-10T10:21:05.315Z,165.95
2023-01-10T10:24:05.620Z,164.10
2023-01-10T10:27:16.242Z,166.80
2023-01-10T10:30:17.694Z,172.77
2023-01-10T10:33:18.276Z,161.55
2023-01-10T10:36:12.502Z,168.93
2023-01-10T10:39:03.431Z,171.65
2023-01-10T10:42:09.123Z,175.45
2023-01-10T10:45:03.285Z,176.00
2023-01-10T10:51:00.682Z,165.13
2023-01-10T10:53:43.331Z,167.93
2023-01-10T10:56:27.876Z,170.80
2023-01-10T10:59:16.251Z,169.98
2023-01-10T11:01:58.595Z,172.55
2023-01-10T11:04:47.221Z,176.57
2023-01-10T11:07:35.642Z,172.07
2023-01-10T11:10:43.248Z,174.10
2023-01-10T11:13:34.481Z,175.20
2023-01-10T11:16:37.377Z,173.60
2023-01-10T11:19:31.748Z,176.35
2023-01-10T11:22:16.373Z,174.43
2023-01-10T11:25:09.567Z,169.85
2023-01-10T11:28:06.324Z,181.13
2023-01-10T11:30:48.661Z,176.52
2023-01-10T11:33:43.356Z,175.10
2023-01-10T11:36:26.264Z,178.43
2023-01-10T11:39:15.240Z,179.48
2023-01-10T11:42:06.412Z,172.07
2023-01-10T11:44:55.542Z,175.70
2023-01-10T11:47:45.288Z,172.48
2023-01-10T11:50:38.895Z,173.13
2023-01-10T11:53:43.222Z,172.07
2023-01-10T11:56:37.660Z,171.90
2023-01-10T11:59:26.761Z,175.50
2023-01-10T12:02:23.468Z,178.95
2023-01-10T12:05:10.150Z,174.27
2023-01-10T12:08:14.288Z,172.20
2023-01-10T12:11:26.111Z,169.32
2023-01-10T12:14:28.184Z,169.65
2023-01-10T12:17:11.673Z,174.50
2023-01-10T12:20:04.277Z,167.07
2023-01-10T12:22:59.761Z,171.68
2023-01-10T12:26:11.127Z,172.77
2023-01-10T12:28:58.874Z,177.25
2023-01-10T12:31:49.264Z,169.48
2023-01-10T12:34:50.218Z,172.38
2023-01-10T12:37:51.416Z,173.40
2023-01-10T12:40:58.751Z,167.45
2023-01-10T12:44:09.309Z,165.20
2023-01-10T12:47:09.917Z,161.40
2023-01-10T12:50:21.402Z,156.15
2023-01-10T12:53:27.622Z,151.30
2023-01-10T12:56:15.226Z,153.60
2023-01-10T12:59:11.587Z,149.70
2023-01-10T13:02:02.379Z,147.00
2023-01-10T13:04:56.591Z,140.80
2023-01-10T13:07:43.217Z,144.90
2023-01-10T13:10:34.649Z,139.68
2023-01-10T13:13:45.743Z,138.18
2023-01-10T13:16:43.178Z,133.95
2023-01-10T13:19:32.189Z,133.48
2023-01-10T13:22:28.657Z,133.60
2023-01-10T13:25:11.277Z,130.43
2023-01-10T13:28:29.244Z,132.15
2023-01-10T13:31:27.780Z,128.82
2023-01-10T13:34:20.313Z,129.75
2023-01-10T13:37:20.663Z,131.35
2023-01-10T13:40:08.301Z,130.40
2023-01-10T13:43:34.789Z,131.52
2023-01-10T13:46:33.362Z,122.65
2023-01-10T13:49:32.088Z,124.53
2023-01-10T13:52:40.277Z,120.88
2023-01-10T13:55:40.737Z,119.00
2023-01-10T13:58:49.312Z,117.65
2023-01-10T14:02:03.951Z,114.18
2023-01-10T14:05:04.308Z,113.38
2023-01-10T14:07:51.725Z,112.55
2023-01-10T14:10:48.512Z,117.13
2023-01-10T14:13:38.202Z,116.78
2023-01-10T14:16:50.141Z,117.55
2023-01-10T14:19:45.295Z,116.82
2023-01-10T14:22:50.282Z,117.78
2023-01-10T14:25:36.065Z,116.57
2023-01-10T14:28:49.357Z,115.85
2023-01-10T14:31:39.686Z,115.97
2023-01-10T14:34:30.362Z,119.10
2023-01-10T14:37:38.713Z,117.65
2023-01-10T14:40:30.364Z,118.15
2023-01-10T14:43:19.303Z,118.60
2023-01-10T14:46:20.491Z,122.20
2023-01-10T14:49:08.562Z,120.85
2023-01-10T14:51:50.217Z,121.78
2023-01-10T14:55:18.221Z,125.90
2023-01-10T14:58:12.206Z,121.78
2023-01-10T15:03:59.027Z,122.03
2023-01-10T15:07:02.253Z,123.65
2023-01-10T15:09:44.713Z,129.43
2023-01-10T15:12:36.302Z,127.05
2023-01-10T15:15:25.550Z,127.00
2023-01-10T15:19:09.246Z,127.90
2023-01-10T15:22:00.140Z,125.18
2023-01-10T15:24:48.615Z,125.40
2023-01-10T15:27:45.274Z,121.93
2023-01-10T15:30:37.577Z,124.90
2023-01-10T15:33:23.281Z,121.90
2023-01-10T15:36:30.347Z,123.68
2023-01-10T15:39:35.500Z,119.50
2023-01-10T15:42:26.431Z,121.43
2023-01-10T15:45:46.218Z,119.18
2023-01-10T15:48:42.262Z,123.15
2023-01-10T15:51:34.550Z,122.93
2023-01-10T15:54:29.247Z,121.60
2023-01-10T15:57:33.994Z,121.05
2023-01-10T16:00:26.232Z,116.72
2023-01-10T16:03:08.629Z,120.18
2023-01-10T16:06:07.229Z,118.22
2023-01-10T16:12:20.264Z,123.75
2023-01-10T16:15:04.801Z,121.15
2023-01-10T16:17:54.171Z,123.85
2023-01-10T16:20:51.237Z,125.15
2023-01-10T16:24:10.786Z,130.73
2023-01-10T16:27:01.111Z,127.90
2023-01-10T16:29:56.303Z,130.55
2023-01-10T16:32:44.607Z,132.13
2023-01-10T16:35:28.149Z,131.75
2023-01-10T16:38:19.147Z,131.93
2023-01-10T16:41:33.320Z,131.02
2023-01-10T16:44:22.548Z,137.98
2023-01-10T16:47:07.137Z,129.57
2023-01-10T16:49:55.560Z,128.13
2023-01-10T16:52:38.372Z,132.38
2023-01-10T16:58:13.331Z,136.48
2023-01-10T17:00:55.643Z,145.55
2023-01-10T17:03:51.329Z,141.27
2023-01-10T17:06:41.593Z,139.00
2023-01-10T17:09:41.344Z,141.30
2023-01-10T17:12:38.608Z,144.68
2023-01-10T17:15:22.261Z,150.80
2023-01-10T17:18:05.175Z,144.20
2023-01-10T17:20:54.403Z,148.77
2023-01-10T17:23:43.759Z,147.57
2023-01-10T17:26:27.121Z,150.38
2023-01-10T17:29:23.397Z,149.60
2023-01-10T17:32:05.638Z,153.57
2023-01-10T17:34:54.188Z,153.63
2023-01-10T17:37:43.771Z,156.00
2023-01-10T17:40:26.298Z,157.73
2023-01-10T17:43:14.722Z,165.98
2023-01-10T17:45:59.243Z,164.60
2023-01-10T17:48:48.167Z,167.52
2023-01-10T17:51:30.634Z,166.90
2023-01-10T17:54:19.368Z,169.95
2023-01-10T17:57:01.532Z,162.75
2023-01-10T17:59:50.307Z,160.98
2023-01-10T18:02:32.660Z,162.25
2023-01-10T18:05:21.316Z,156.55
2023-01-10T18:08:03.957Z,155.80
2023-01-10T18:10:53.305Z,154.27
2023-01-10T18:13:36.665Z,153.65
2023-01-10T18:16:27.209Z,153.55
2023-01-10T18:19:16.269Z,153.90
2023-01-10T18:22:05.215Z,153.23
2023-01-10T18:24:54.110Z,150.32
2023-01-10T18:27:50.218Z,151.52
2023-01-10T18:30:39.150Z,152.07
2023-01-10T18:33:28.302Z,153.80
2023-01-10T18:36:22.561Z,153.10
2023-01-10T18:41:54.766Z,147.63
2023-01-10T18:44:37.288Z,147.70
2023-01-10T18:47:25.671Z,150.70
2023-01-10T18:50:08.266Z,149.80
2023-01-10T18:52:57.371Z,152.70
2023-01-10T18:55:39.559Z,151.95
2023-01-10T18:58:30.311Z,153.10
2023-01-10T19:01:17.877Z,154.45
2023-01-10T19:04:07.191Z,152.88
2023-01-10T19:06:56.913Z,151.60
2023-01-10T19:09:45.511Z,154.23
2023-01-10T19:12:27.220Z,157.57
2023-01-10T19:15:10.877Z,156.98
2023-01-10T19:18:00.264Z,162.88
2023-01-10T19:20:49.230Z,160.40
2023-01-10T19:23:38.265Z,168.63
2023-01-10T19:26:27.595Z,169.20
2023-01-10T19:29:16.183Z,170.18
2023-01-10T19:32:05.167Z,168.10
2023-01-10T19:34:54.288Z,165.88
2023-01-10T19:37:43.130Z,163.73
2023-01-10T19:40:39.250Z,169.43
2023-01-10T19:43:30.245Z,165.10
2023-01-10T19:46:17.666Z,157.63
2023-01-10T19:49:09.267Z,163.60
2023-01-10T19:51:57.064Z,148.82
2023-01-10T19:54:47.267Z,144.70
2023-01-10T19:57:29.604Z,146.05
2023-01-10T20:00:19.204Z,145.13
2023-01-10T20:03:02.074Z,146.63
2023-01-10T20:05:52.183Z,146.38
2023-01-10T20:08:41.208Z,143.13
2023-01-10T20:11:32.137Z,151.10
2023-01-10T20:14:18.584Z,152.40
2023-01-10T20:17:07.215Z,146.57
2023-01-10T20:19:56.226Z,148.57
2023-01-10T20:22:38.373Z,150.15
2023-01-10T20:25:27.160Z,153.70
2023-01-10T20:28:16.258Z,152.80
2023-01-10T20:30:58.573Z,150.23
2023-01-10T20:33:47.169Z,152.88
2023-01-10T20:36:38.136Z,149.43
2023-01-10T20:39:29.211Z,154.02
2023-01-10T20:42:11.560Z,155.77
2023-01-10T20:45:00.275Z,151.70
2023-01-10T20:47:42.531Z,150.23
2023-01-10T20:50:31.101Z,153.73
2023-01-10T20:53:13.647Z,152.52
2023-01-10T20:56:02.282Z,156.80
2023-01-10T20:58:44.553Z,155.73
2023-01-10T21:01:35.881Z,161.00
2023-01-10T21:04:18.492Z,158.80
2023-01-10T21:07:07.373Z,159.57
2023-01-10T21:09:49.688Z,151.95
2023-01-10T21:12:39.508Z,152.05
2023-01-10T21:15:21.536Z,149.15
2023-01-10T21:18:10.261Z,147.45
2023-01-10T21:21:02.224Z,147.93
2023-01-10T21:23:51.163Z,150.07
2023-01-10T21:26:40.171Z,148.57
2023-01-10T21:29:28.532Z,149.57
2023-01-10T21:32:10.149Z,152.32
2023-01-10T21:34:58.505Z,145.93
2023-01-10T21:37:40.132Z,144.45
2023-01-10T21:40:22.360Z,146.20
2023-01-10T21:43:11.216Z,148.15
2023-01-10T21:46:00.294Z,140.70
2023-01-10T21:48:49.120Z,144.00
2023-01-10T21:51:38.114Z,143.35
2023-01-10T21:54:20.550Z,139.93
2023-01-10T21:57:09.113Z,141.82
2023-01-10T21:59:51.543Z,143.43
2023-01-10T22:02:43.063Z,142.82
2023-01-10T22:05:32.248Z,146.68
2023-01-10T22:08:21.108Z,139.75
2023-01-10T22:11:11.070Z,140.10
2023-01-10T22:14:00.541Z,138.25
2023-01-10T22:16:43.103Z,147.95
2023-01-10T22:19:32.272Z,153.75
2023-01-10T22:22:15.684Z,148.13
2023-01-10T22:25:04.233Z,151.90
2023-01-10T22:28:01.078Z,140.90
2023-01-10T22:30:50.250Z,141.57
2023-01-10T22:33:35.419Z,136.60
2023-01-10T22:36:26.301Z,138.48
2023-01-10T22:39:08.489Z,134.95
2023-01-10T22:41:57.202Z,134.48
2023-01-10T22:44:39.573Z,134.77
2023-01-10T22:47:28.240Z,133.38
2023-01-10T22:50:10.503Z,131.32
2023-01-10T22:52:59.081Z,139.25
2023-01-10T22:55:42.486Z,134.55
2023-01-10T22:58:31.233Z,137.70
2023-01-10T23:01:16.446Z,133.77
2023-01-10T23:04:05.243Z,134.88
2023-01-10T23:06:54.251Z,133.40
2023-01-10T23:09:36.408Z,134.65
2023-01-10T23:12:25.186Z,130.05
2023-01-10T23:15:07.889Z,130.88
2023-01-10T23:17:57.184Z,133.43
2023-01-10T23:20:45.472Z,131.75
2023-01-10T23:23:28.201Z,133.40
2023-01-10T23:26:12.830Z,139.60
2023-01-10T23:29:04.204Z,136.05
2023-01-10T23:31:50.768Z,141.65
2023-01-10T23:34:39.067Z,145.55
2023-01-10T23:37:34.201Z,145.20
2023-01-10T23:40:16.425Z,145.35
2023-01-10T23:43:05.223Z,147.57
2023-01-10T23:45:54.509Z,151.13
2023-01-10T23:48:37.243Z,144.75
2023-01-10T23:51:19.424Z,145.55
2023-01-10T23:54:08.094Z,148.98
2023-01-10T23:57:00.135Z,143.00
2023-01-10T23:59:42.491Z,147.00
